Time;durP1;ratioP1;P1;durP2;ratioP2;P2;SDS_P1;SDS_P2;PMS_P1;PMS_P2;Temp;Humidity;BMP_temperature;BMP_pressure;BME280_temperature;BME280_humidity;BME280_pressure;Samples;Min_cycle;Max_cycle;Signal;HPM_P1;HPM_P2
2023/06/19 00:00:43;;;;;;;19.83;8.93;;;;;;;20.94;82.39;100678.66;5102860;28;20036;-61
2023/06/19 00:03:09;;;;;;;19.60;8.80;;;;;;;20.86;83.10;100678.94;5104906;28;20028;-63
2023/06/19 00:05:34;;;;;;;19.23;8.63;;;;;;;20.76;85.45;100680.25;5101608;28;20094;-62
2023/06/19 00:07:59;;;;;;;19.73;8.77;;;;;;;20.70;86.04;100683.19;5105032;28;20028;-63
2023/06/19 00:10:25;;;;;;;19.33;8.75;;;;;;;20.60;87.20;100685.34;5102687;28;20020;-63
2023/06/19 00:12:50;;;;;;;20.15;8.85;;;;;;;20.54;87.72;100677.53;5103630;28;20474;-63
2023/06/19 00:15:15;;;;;;;19.45;8.68;;;;;;;20.53;88.77;100690.09;5103638;28;20057;-64
2023/06/19 00:17:41;;;;;;;19.20;8.57;;;;;;;20.46;89.46;100695.75;5102178;28;20477;-61
2023/06/19 00:20:07;;;;;;;19.52;8.93;;;;;;;20.40;90.28;100699.53;5104775;28;20072;-64
2023/06/19 00:22:32;;;;;;;19.23;8.80;;;;;;;20.36;90.99;100711.34;5101640;28;20016;-64
2023/06/19 00:24:58;;;;;;;19.35;8.68;;;;;;;20.31;91.97;100716.88;5104518;28;20035;-61
2023/06/19 00:27:24;;;;;;;19.17;8.50;;;;;;;20.20;93.05;100709.25;5102294;28;20378;-61
2023/06/19 00:29:51;;;;;;;21.05;8.80;;;;;;;20.15;94.33;100710.34;5103827;28;20028;-61
2023/06/19 00:32:16;;;;;;;19.35;8.50;;;;;;;20.06;95.38;100719.63;5103257;28;20525;-63
2023/06/19 00:34:42;;;;;;;19.90;8.65;;;;;;;20.07;95.66;100724.06;5101924;28;20108;-62
2023/06/19 00:37:09;;;;;;;19.08;8.60;;;;;;;20.06;96.21;100725.00;5104455;28;20038;-60
2023/06/19 00:39:35;;;;;;;19.08;8.55;;;;;;;20.03;97.10;100725.09;5101283;28;20027;-63
2023/06/19 00:42:01;;;;;;;19.85;9.23;;;;;;;20.03;97.53;100727.78;5097003;28;20080;-62
2023/06/19 00:44:26;;;;;;;19.00;8.35;;;;;;;19.98;98.28;100732.44;5104262;28;20378;-65
2023/06/19 00:46:58;;;;;;;19.45;8.40;;;;;;;20.00;97.21;100735.94;5102192;28;20116;-63
2023/06/19 00:49:28;;;;;;;19.40;8.40;;;;;;;19.98;98.28;100744.06;5103573;28;20044;-62
2023/06/19 00:51:53;;;;;;;18.65;7.63;;;;;;;19.96;98.87;100739.66;5102324;28;20164;-63
2023/06/19 00:54:19;;;;;;;18.60;7.45;;;;;;;19.93;99.61;100742.47;5102863;28;20107;-64
2023/06/19 00:56:45;;;;;;;18.45;7.40;;;;;;;19.86;100.00;100747.16;5103302;28;20165;-60
2023/06/19 00:59:19;;;;;;;18.13;6.97;;;;;;;19.83;100.00;100748.19;5101655;28;20518;-61
2023/06/19 01:01:45;;;;;;;18.50;7.45;;;;;;;19.72;100.00;100753.00;5103508;28;20026;-63
2023/06/19 01:04:11;;;;;;;18.63;7.30;;;;;;;19.64;100.00;100744.34;5101781;28;20375;-63
2023/06/19 01:06:47;;;;;;;19.15;7.78;;;;;;;19.65;100.00;100752.31;5104494;28;20031;-63
2023/06/19 01:09:16;;;;;;;19.70;7.20;;;;;;;19.72;100.00;100753.00;5102182;28;20036;-67
2023/06/19 01:11:48;;;;;;;18.73;7.53;;;;;;;19.62;100.00;100751.56;5103473;28;20027;-66
2023/06/19 01:14:34;;;;;;;19.02;7.07;;;;;;;19.65;100.00;100748.78;5102059;28;20081;-61
2023/06/19 01:17:00;;;;;;;18.27;7.18;;;;;;;19.56;100.00;100749.13;5101075;28;20028;-67
2023/06/19 01:19:26;;;;;;;17.92;6.70;;;;;;;19.50;100.00;100753.75;5103684;28;20031;-65
2023/06/19 01:21:51;;;;;;;18.27;6.40;;;;;;;19.48;100.00;100749.34;5102382;28;20359;-64
2023/06/19 01:24:16;;;;;;;17.20;6.18;;;;;;;19.51;100.00;100763.53;5102276;28;20572;-67
2023/06/19 01:26:45;;;;;;;17.38;5.93;;;;;;;19.37;100.00;100759.56;5103658;28;20032;-67
2023/06/19 01:29:12;;;;;;;17.60;5.93;;;;;;;19.20;100.00;100754.78;5101454;28;20071;-67
2023/06/19 01:31:42;;;;;;;17.52;6.13;;;;;;;19.13;100.00;100763.03;5103982;28;20076;-67
2023/06/19 01:34:08;;;;;;;16.88;5.63;;;;;;;19.09;100.00;100758.69;5101106;28;20035;-67
2023/06/19 01:36:35;;;;;;;16.58;5.80;;;;;;;19.05;100.00;100762.38;5104381;28;20055;-67
2023/06/19 01:39:01;;;;;;;16.45;5.68;;;;;;;19.04;100.00;100771.34;5100427;28;20385;-66
2023/06/19 01:41:28;;;;;;;16.63;5.68;;;;;;;18.95;100.00;100777.00;5104312;28;20027;-67
2023/06/19 01:43:54;;;;;;;17.17;5.65;;;;;;;18.91;100.00;100778.00;5101841;28;20027;-67
2023/06/19 01:46:20;;;;;;;16.52;5.72;;;;;;;18.87;100.00;100779.91;5105330;28;20039;-65
2023/06/19 01:48:45;;;;;;;17.67;5.45;;;;;;;18.82;100.00;100771.13;5088331;28;20056;-66
2023/06/19 01:51:11;;;;;;;16.73;5.60;;;;;;;18.80;100.00;100783.69;5104796;28;20086;-67
2023/06/19 01:53:36;;;;;;;17.58;5.50;;;;;;;18.70;100.00;100779.50;5107572;28;20035;-65
2023/06/19 01:56:02;;;;;;;16.15;5.30;;;;;;;18.65;100.00;100779.66;5104503;28;20036;-60
2023/06/19 01:58:27;;;;;;;15.32;4.93;;;;;;;18.66;100.00;100781.41;5106953;28;20546;-63
2023/06/19 02:00:53;;;;;;;15.43;5.10;;;;;;;18.66;100.00;100783.22;5105274;28;20035;-62
2023/06/19 02:03:18;;;;;;;17.83;5.28;;;;;;;18.54;100.00;100781.81;5105808;28;20086;-63
2023/06/19 02:05:44;;;;;;;14.90;5.00;;;;;;;18.50;100.00;100785.47;5106434;28;20031;-64
2023/06/19 02:08:09;;;;;;;13.95;4.80;;;;;;;18.45;100.00;100778.47;5104325;28;20474;-63
2023/06/19 02:10:35;;;;;;;14.25;4.68;;;;;;;18.34;100.00;100788.59;5107755;28;20023;-64
2023/06/19 02:13:00;;;;;;;14.43;4.70;;;;;;;18.40;100.00;100796.44;5085930;28;20348;-62
2023/06/19 02:15:25;;;;;;;15.23;4.78;;;;;;;18.45;100.00;100794.53;5106464;28;20048;-64
2023/06/19 02:17:54;;;;;;;14.23;4.60;;;;;;;18.48;100.00;100793.56;5105258;28;20036;-64
2023/06/19 02:20:26;;;;;;;13.77;4.40;;;;;;;18.50;100.00;100796.19;5105490;28;20020;-63
2023/06/19 02:22:52;;;;;;;14.18;4.50;;;;;;;18.44;100.00;100791.88;5104907;28;20035;-63
2023/06/19 02:25:18;;;;;;;13.02;4.30;;;;;;;18.38;100.00;100800.97;5105163;28;20032;-63
2023/06/19 02:27:44;;;;;;;13.23;4.22;;;;;;;18.36;100.00;100800.13;5105898;28;20031;-63
2023/06/19 02:30:10;;;;;;;12.63;4.20;;;;;;;18.28;100.00;100797.66;5103924;28;20039;-61
2023/06/19 02:32:35;;;;;;;12.73;4.20;;;;;;;18.20;100.00;100801.47;5107112;28;20051;-63
2023/06/19 02:35:00;;;;;;;10.45;3.92;;;;;;;18.17;100.00;100793.53;5103481;28;20106;-63
2023/06/19 02:37:26;;;;;;;11.73;3.92;;;;;;;18.15;100.00;100798.94;5106000;28;20025;-63
2023/06/19 02:39:51;;;;;;;13.45;4.30;;;;;;;18.11;100.00;100790.13;5104905;28;20055;-60
2023/06/19 02:42:16;;;;;;;12.48;4.10;;;;;;;18.15;100.00;100801.63;5104509;28;20474;-67
2023/06/19 02:44:45;;;;;;;11.65;4.15;;;;;;;18.11;100.00;100797.25;5106058;28;20032;-67
2023/06/19 02:47:10;;;;;;;13.15;4.30;;;;;;;18.06;100.00;100792.03;5103605;28;20028;-63
2023/06/19 02:49:36;;;;;;;12.15;4.20;;;;;;;18.03;100.00;100800.16;5106661;28;20443;-66
2023/06/19 02:52:01;;;;;;;12.32;4.20;;;;;;;18.04;100.00;100788.56;5103272;28;20107;-67
2023/06/19 02:54:27;;;;;;;13.27;4.38;;;;;;;17.92;100.00;100802.25;5105713;28;20409;-66
2023/06/19 02:56:52;;;;;;;12.77;4.18;;;;;;;17.91;100.00;100798.69;5104153;28;20042;-67
2023/06/19 02:59:17;;;;;;;13.95;4.38;;;;;;;17.87;100.00;100809.50;5104479;28;20036;-67
2023/06/19 03:01:43;;;;;;;13.10;4.20;;;;;;;17.95;100.00;100802.16;5105579;28;20031;-68
2023/06/19 03:04:08;;;;;;;10.55;4.00;;;;;;;17.86;100.00;100807.72;5084883;28;20386;-67
2023/06/19 03:06:39;;;;;;;12.63;4.40;;;;;;;17.83;100.00;100805.13;5106509;28;20023;-67
2023/06/19 03:09:05;;;;;;;13.18;4.45;;;;;;;17.78;100.00;100814.16;5098963;28;20062;-68
2023/06/19 03:11:30;;;;;;;14.80;4.82;;;;;;;17.82;100.00;100827.44;5106045;28;20063;-63
2023/06/19 03:13:56;;;;;;;13.40;4.47;;;;;;;17.80;100.00;100823.94;5104044;28;20027;-67
2023/06/19 03:16:22;;;;;;;13.32;4.43;;;;;;;17.73;100.00;100821.41;5104539;28;20035;-64
2023/06/19 03:18:48;;;;;;;13.52;4.50;;;;;;;17.70;100.00;100825.97;5104488;28;20098;-67
2023/06/19 03:21:14;;;;;;;16.60;4.43;;;;;;;17.64;100.00;100824.31;5103487;28;20032;-67
2023/06/19 03:23:43;;;;;;;14.23;4.57;;;;;;;17.63;100.00;100824.34;5105577;28;20020;-64
2023/06/19 03:26:10;;;;;;;14.00;4.60;;;;;;;17.62;100.00;100828.84;5102520;28;20072;-67
2023/06/19 03:28:36;;;;;;;13.15;4.72;;;;;;;17.59;100.00;100826.22;5106073;28;20027;-66
2023/06/19 03:31:02;;;;;;;15.75;5.00;;;;;;;17.62;100.00;100836.84;5102364;28;20166;-67
2023/06/19 03:33:27;;;;;;;15.70;5.10;;;;;;;17.56;100.00;100840.56;5105119;28;20032;-67
2023/06/19 03:35:52;;;;;;;14.93;4.95;;;;;;;17.52;100.00;100833.53;5103804;28;20042;-66
2023/06/19 03:38:18;;;;;;;17.05;5.15;;;;;;;17.51;100.00;100833.56;5103602;28;20035;-67
2023/06/19 03:40:43;;;;;;;15.60;5.05;;;;;;;17.53;100.00;100839.72;5105062;28;20023;-67
2023/06/19 03:43:08;;;;;;;16.27;5.13;;;;;;;17.55;100.00;100857.50;5102243;28;20150;-67
2023/06/19 03:45:34;;;;;;;16.75;5.18;;;;;;;17.59;100.00;100850.25;5105555;28;20031;-68
2023/06/19 03:47:59;;;;;;;15.93;5.28;;;;;;;17.61;100.00;100853.81;5102122;28;20419;-68
2023/06/19 03:50:24;;;;;;;16.27;5.20;;;;;;;17.67;100.00;100853.63;5104794;28;20161;-68
2023/06/19 03:52:50;;;;;;;15.93;5.40;;;;;;;17.71;100.00;100858.00;5103718;28;20031;-68
2023/06/19 03:55:15;;;;;;;18.15;5.60;;;;;;;17.77;100.00;100859.63;5103104;28;20058;-69
2023/06/19 03:57:41;;;;;;;16.33;5.45;;;;;;;17.82;100.00;100863.06;5104651;28;20023;-69
2023/06/19 04:00:07;;;;;;;16.70;5.50;;;;;;;17.85;100.00;100876.34;5101849;28;20035;-69
2023/06/19 04:02:35;;;;;;;16.35;5.40;;;;;;;17.85;100.00;100876.34;5097796;28;20111;-68
2023/06/19 04:05:01;;;;;;;17.20;6.03;;;;;;;17.87;100.00;100879.88;5104964;28;20547;-69
2023/06/19 04:07:26;;;;;;;16.80;5.60;;;;;;;17.86;100.00;100878.09;5084052;28;20053;-68
2023/06/19 04:09:52;;;;;;;18.27;6.18;;;;;;;17.91;100.00;100883.38;5103756;28;20474;-69
2023/06/19 04:12:17;;;;;;;16.48;5.50;;;;;;;17.90;100.00;100886.97;5103677;28;20034;-69
2023/06/19 04:14:42;;;;;;;16.27;5.55;;;;;;;17.95;100.00;100893.06;5102132;28;20109;-69
2023/06/19 04:17:08;;;;;;;15.93;5.60;;;;;;;17.94;100.00;100900.22;5105228;28;20053;-68
2023/06/19 04:19:33;;;;;;;16.27;5.65;;;;;;;17.96;100.00;100894.84;5101340;28;20478;-69
2023/06/19 04:21:58;;;;;;;16.45;5.60;;;;;;;17.96;100.00;100896.66;5104554;28;20541;-68
2023/06/19 04:24:24;;;;;;;16.60;5.65;;;;;;;17.99;100.00;100897.44;5102927;28;20520;-69
2023/06/19 04:26:49;;;;;;;17.73;6.30;;;;;;;18.08;100.00;100902.53;5102908;28;20028;-68
2023/06/19 04:29:17;;;;;;;17.60;5.80;;;;;;;18.08;100.00;100907.00;5104003;28;20417;-65
2023/06/19 04:31:46;;;;;;;17.20;6.38;;;;;;;18.07;100.00;100913.28;5102419;28;20360;-68
2023/06/19 04:34:15;;;;;;;17.05;5.78;;;;;;;18.11;100.00;100914.97;5070192;28;20020;-69
2023/06/19 04:36:41;;;;;;;18.52;6.45;;;;;;;18.07;100.00;100921.28;5101703;28;20030;-68
2023/06/19 04:39:06;;;;;;;19.20;6.32;;;;;;;18.12;100.00;100917.59;5105206;28;20031;-68
2023/06/19 04:41:32;;;;;;;17.70;6.35;;;;;;;18.11;100.00;100921.22;5101298;28;20032;-64
2023/06/19 04:43:57;;;;;;;16.77;6.40;;;;;;;18.11;100.00;100926.56;5103947;28;20054;-65
2023/06/19 04:46:23;;;;;;;18.90;7.20;;;;;;;18.15;100.00;100923.78;5102814;28;20137;-64
2023/06/19 04:48:51;;;;;;;18.55;7.28;;;;;;;18.15;100.00;100929.16;5102072;28;20044;-63
2023/06/19 04:51:20;;;;;;;17.27;6.57;;;;;;;18.19;100.00;100939.72;5103408;28;20040;-63
2023/06/19 04:53:46;;;;;;;18.90;7.00;;;;;;;18.21;100.00;100932.53;5102413;28;20052;-64
2023/06/19 04:56:12;;;;;;;18.50;6.40;;;;;;;18.31;100.00;100930.50;5103984;28;20039;-63
2023/06/19 04:58:45;;;;;;;17.52;6.78;;;;;;;18.33;100.00;100923.28;5100862;28;20036;-61
2023/06/19 05:01:11;;;;;;;18.33;7.18;;;;;;;18.32;100.00;100934.94;5098321;28;20043;-63
2023/06/19 05:03:36;;;;;;;18.67;7.20;;;;;;;18.37;100.00;100927.66;5104527;28;20019;-65
2023/06/19 05:06:02;;;;;;;19.90;7.18;;;;;;;18.40;100.00;100924.88;5101105;28;20028;-64
2023/06/19 05:08:27;;;;;;;17.60;6.82;;;;;;;18.43;100.00;100927.47;5103732;28;20161;-64
2023/06/19 05:10:53;;;;;;;17.60;6.78;;;;;;;18.44;100.00;100934.59;5102394;28;20034;-64
2023/06/19 05:13:19;;;;;;;18.42;6.72;;;;;;;18.51;100.00;100940.66;5102129;28;20020;-64
2023/06/19 05:15:44;;;;;;;19.08;6.88;;;;;;;18.52;100.00;100933.50;5103800;28;20073;-64
2023/06/19 05:18:09;;;;;;;19.13;7.15;;;;;;;18.55;100.00;100938.78;5100908;28;20054;-64
2023/06/19 05:20:35;;;;;;;17.80;6.63;;;;;;;18.54;100.00;100937.03;5106403;28;20028;-64
2023/06/19 05:23:00;;;;;;;17.92;6.97;;;;;;;18.54;100.00;100947.75;5105414;28;20462;-64
2023/06/19 05:25:26;;;;;;;18.25;7.20;;;;;;;18.58;100.00;100950.28;5107155;28;20063;-63
2023/06/19 05:27:51;;;;;;;18.77;7.60;;;;;;;18.67;100.00;100954.50;5106472;28;20050;-64
2023/06/19 05:30:16;;;;;;;18.88;7.30;;;;;;;18.74;100.00;100955.19;5105924;28;20493;-64
2023/06/19 05:32:42;;;;;;;18.98;7.40;;;;;;;18.76;100.00;100956.94;5107651;28;20516;-63
2023/06/19 05:35:07;;;;;;;18.90;7.70;;;;;;;18.77;100.00;100958.69;5104756;28;20031;-64
2023/06/19 05:37:33;;;;;;;19.40;7.32;;;;;;;18.82;100.00;100963.91;5107858;28;20027;-64
2023/06/19 05:39:59;;;;;;;19.50;7.90;;;;;;;18.84;100.00;100955.84;5105117;28;20034;-64
2023/06/19 05:42:24;;;;;;;19.48;7.47;;;;;;;18.84;100.00;100969.22;5106805;28;20368;-64
2023/06/19 05:44:50;;;;;;;18.65;7.82;;;;;;;18.81;100.00;100954.13;5103120;28;20031;-71
2023/06/19 05:47:16;;;;;;;19.30;7.45;;;;;;;18.87;100.00;100958.44;5106858;28;20490;-70
2023/06/19 05:49:42;;;;;;;18.83;7.63;;;;;;;18.92;100.00;100969.94;5100130;28;20071;-66
2023/06/19 05:52:08;;;;;;;20.02;7.55;;;;;;;18.98;100.00;100967.94;5107126;28;20074;-69
2023/06/19 05:54:33;;;;;;;18.95;7.68;;;;;;;19.04;100.00;100966.00;5105088;28;20031;-68
2023/06/19 05:56:58;;;;;;;18.38;7.80;;;;;;;19.02;100.00;100965.16;5105997;28;20028;-67
2023/06/19 05:59:24;;;;;;;19.20;7.88;;;;;;;18.98;100.00;100981.31;5105902;28;20034;-68
2023/06/19 06:01:53;;;;;;;19.83;8.60;;;;;;;18.94;100.00;100976.09;5105156;28;20107;-70
2023/06/19 06:04:18;;;;;;;20.15;8.38;;;;;;;18.99;100.00;100971.50;5106448;28;20444;-70
2023/06/19 06:06:44;;;;;;;19.25;8.23;;;;;;;19.04;100.00;100974.91;5104388;28;20123;-74
2023/06/19 06:09:12;;;;;;;18.60;7.97;;;;;;;19.06;100.00;100974.88;5107165;28;20020;-73
2023/06/19 06:11:37;;;;;;;20.67;8.60;;;;;;;19.20;100.00;100980.72;5102552;28;20024;-71
2023/06/19 06:14:02;;;;;;;19.48;8.85;;;;;;;19.27;100.00;100986.78;5106355;28;20024;-72
2023/06/19 06:16:28;;;;;;;20.73;9.57;;;;;;;19.26;100.00;100995.72;5096680;28;20471;-70
2023/06/19 06:18:53;;;;;;;20.77;10.20;;;;;;;19.32;100.00;100995.53;5086085;28;20114;-73
2023/06/19 06:21:18;;;;;;;21.13;10.00;;;;;;;19.23;100.00;100998.50;5103915;28;20133;-72
2023/06/19 06:23:44;;;;;;;20.70;10.18;;;;;;;19.25;100.00;101005.59;5105757;28;20028;-72
2023/06/19 06:26:10;;;;;;;20.52;9.80;;;;;;;19.32;100.00;101003.59;5106836;28;20023;-71
2023/06/19 06:28:36;;;;;;;21.80;10.98;;;;;;;19.40;100.00;101000.69;5103409;28;20541;-74
2023/06/19 06:31:02;;;;;;;20.95;10.85;;;;;;;19.42;100.00;101010.44;5105965;28;20115;-73
2023/06/19 06:33:27;;;;;;;21.40;11.15;;;;;;;19.42;100.00;101013.09;5104285;28;20102;-73
2023/06/19 06:35:55;;;;;;;21.45;11.45;;;;;;;19.42;100.00;101018.47;5103078;28;20032;-78
2023/06/19 06:38:20;;;;;;;21.13;11.10;;;;;;;19.52;100.00;101019.06;5106026;28;20455;-74
2023/06/19 06:40:46;;;;;;;20.60;10.60;;;;;;;19.63;100.00;101029.47;5104236;28;20127;-65
2023/06/19 06:43:11;;;;;;;21.05;11.63;;;;;;;19.77;100.00;101032.59;5104572;28;20398;-65
2023/06/19 06:45:41;;;;;;;21.33;10.95;;;;;;;19.90;100.00;101029.59;5105526;28;20387;-61
2023/06/19 06:48:07;;;;;;;21.90;11.38;;;;;;;19.95;100.00;101022.25;5104323;28;20482;-65
2023/06/19 06:50:33;;;;;;;21.10;10.65;;;;;;;19.97;100.00;101044.56;5086539;28;20034;-68
2023/06/19 06:52:58;;;;;;;21.10;10.82;;;;;;;20.13;100.00;101048.50;5104151;28;20070;-62
2023/06/19 06:55:24;;;;;;;22.17;11.10;;;;;;;20.10;100.00;101048.59;5102117;28;20020;-64
2023/06/19 06:57:49;;;;;;;23.02;10.95;;;;;;;20.03;100.00;101050.59;5096713;28;20032;-61
2023/06/19 07:00:15;;;;;;;20.98;11.50;;;;;;;20.08;100.00;101044.22;5105144;28;20111;-62
2023/06/19 07:02:40;;;;;;;20.55;11.15;;;;;;;20.15;100.00;101043.97;5104151;28;20478;-63
2023/06/19 07:05:10;;;;;;;20.98;12.00;;;;;;;20.20;100.00;101042.00;5102050;28;20027;-68
2023/06/19 07:07:35;;;;;;;21.98;12.00;;;;;;;20.26;100.00;101048.13;5084594;28;20386;-63
2023/06/19 07:10:00;;;;;;;21.10;12.25;;;;;;;20.14;100.00;101050.25;5103038;28;20027;-66
2023/06/19 07:12:26;;;;;;;22.20;12.75;;;;;;;20.09;100.00;101054.03;5105654;28;20031;-66
2023/06/19 07:14:55;;;;;;;22.00;12.77;;;;;;;20.10;100.00;101066.53;5103003;28;20063;-67
2023/06/19 07:17:20;;;;;;;21.48;12.38;;;;;;;20.07;100.00;101070.16;5105490;28;20027;-67
2023/06/19 07:19:46;;;;;;;22.60;12.38;;;;;;;20.13;100.00;101061.91;5094703;28;20024;-66
2023/06/19 07:22:12;;;;;;;22.08;12.85;;;;;;;20.22;100.00;101068.78;5096677;28;20374;-68
2023/06/19 07:24:37;;;;;;;21.63;12.15;;;;;;;20.47;100.00;101074.22;5095325;28;20039;-67
2023/06/19 07:27:03;;;;;;;21.42;11.38;;;;;;;20.64;100.00;101072.81;5096085;28;20373;-67
2023/06/19 07:29:28;;;;;;;20.25;10.95;;;;;;;20.71;100.00;101085.13;5102148;28;20126;-70
2023/06/19 07:31:53;;;;;;;20.92;11.35;;;;;;;20.74;100.00;101082.34;5103287;28;20484;-70
2023/06/19 07:34:19;;;;;;;21.45;11.95;;;;;;;20.67;100.00;101087.03;5105271;28;20050;-69
2023/06/19 07:36:44;;;;;;;21.30;11.30;;;;;;;20.53;100.00;101083.88;5104437;28;20051;-71
2023/06/19 07:39:10;;;;;;;20.95;11.35;;;;;;;20.70;100.00;101086.03;5102596;28;20032;-69
2023/06/19 07:41:36;;;;;;;20.77;10.55;;;;;;;20.81;100.00;101093.72;5105486;28;20382;-69
2023/06/19 07:44:01;;;;;;;20.85;10.18;;;;;;;20.93;100.00;101089.75;5101055;28;20036;-66
2023/06/19 07:46:26;;;;;;;21.33;10.07;;;;;;;21.06;100.00;101091.94;5105024;28;20028;-70
2023/06/19 07:48:52;;;;;;;20.90;10.10;;;;;;;21.11;100.00;101078.34;5103140;28;20052;-68
2023/06/19 07:51:17;;;;;;;20.92;10.50;;;;;;;21.18;100.00;101085.25;5102088;28;20043;-73
2023/06/19 07:53:43;;;;;;;20.75;9.80;;;;;;;21.34;100.00;101082.00;5104143;28;20129;-69
2023/06/19 07:56:09;;;;;;;19.92;9.30;;;;;;;21.55;100.00;101086.63;5103499;28;20024;-73
2023/06/19 07:58:34;;;;;;;19.45;8.68;;;;;;;21.67;100.00;101079.00;5102900;28;20382;-69
2023/06/19 08:01:00;;;;;;;20.02;9.75;;;;;;;21.70;100.00;101090.53;5103522;28;20102;-69
2023/06/19 08:03:25;;;;;;;21.20;9.50;;;;;;;21.64;100.00;101089.88;5102869;28;20073;-72
2023/06/19 08:05:51;;;;;;;20.98;9.23;;;;;;;21.72;100.00;101093.16;5104253;28;20032;-65
2023/06/19 08:08:16;;;;;;;20.83;9.25;;;;;;;21.76;100.00;101094.81;5083653;28;20028;-70
2023/06/19 08:10:41;;;;;;;20.75;9.57;;;;;;;21.62;100.00;101097.16;5104730;28;20031;-68
2023/06/19 08:13:07;;;;;;;20.52;9.07;;;;;;;21.54;100.00;101098.31;5102391;28;20441;-66
2023/06/19 08:15:33;;;;;;;20.15;8.82;;;;;;;21.57;100.00;101094.63;5101010;28;20032;-67
2023/06/19 08:17:58;;;;;;;19.48;9.10;;;;;;;21.63;100.00;101102.47;5104226;28;20038;-68
2023/06/19 08:20:23;;;;;;;20.80;10.20;;;;;;;21.82;100.00;101110.72;5102107;28;20489;-68
2023/06/19 08:22:49;;;;;;;20.63;10.15;;;;;;;21.93;100.00;101110.28;5103449;28;20032;-69
2023/06/19 08:25:14;;;;;;;20.40;9.05;;;;;;;21.86;100.00;101100.72;5103218;28;20107;-66
2023/06/19 08:27:40;;;;;;;21.08;9.80;;;;;;;21.74;100.00;101094.88;5102457;28;20486;-66
2023/06/19 08:30:06;;;;;;;20.40;9.90;;;;;;;21.87;100.00;101087.22;5104041;28;20385;-63
2023/06/19 08:32:31;;;;;;;20.75;9.82;;;;;;;22.11;100.00;101096.09;5101320;28;20479;-64
2023/06/19 08:34:56;;;;;;;20.02;9.40;;;;;;;22.22;99.39;101105.56;5104712;28;20062;-63
2023/06/19 08:37:22;;;;;;;20.50;9.27;;;;;;;22.44;97.45;101113.66;5101736;28;20024;-68
2023/06/19 08:39:47;;;;;;;19.75;9.23;;;;;;;22.54;95.47;101122.25;5101019;28;20475;-64
2023/06/19 08:42:12;;;;;;;21.08;10.07;;;;;;;22.29;93.23;101120.53;5104715;28;20055;-68
2023/06/19 08:44:38;;;;;;;20.27;10.20;;;;;;;22.21;93.08;101131.63;5102027;28;20034;-70
2023/06/19 08:47:04;;;;;;;20.02;9.93;;;;;;;22.19;95.99;101125.44;5102138;28;20109;-70
2023/06/19 08:49:31;;;;;;;21.35;9.88;;;;;;;22.30;95.12;101125.00;5102629;28;20455;-70
2023/06/19 08:51:56;;;;;;;21.27;10.23;;;;;;;22.50;94.08;101124.22;5101911;28;20047;-70
2023/06/19 08:54:22;;;;;;;20.58;9.30;;;;;;;22.70;92.32;101126.09;5105656;28;20405;-69
2023/06/19 08:56:48;;;;;;;20.05;9.80;;;;;;;22.50;92.11;101137.69;5105508;28;20496;-69
2023/06/19 08:59:15;;;;;;;21.15;9.88;;;;;;;22.59;92.08;101140.00;5108270;28;20386;-70
2023/06/19 09:01:51;;;;;;;20.17;9.65;;;;;;;22.80;89.35;101157.09;5105892;28;20031;-70
2023/06/19 09:04:21;;;;;;;20.50;9.65;;;;;;;22.55;90.26;101154.50;5101099;28;20020;-69
2023/06/19 09:06:54;;;;;;;20.35;9.45;;;;;;;22.60;90.52;101152.53;5101248;28;20080;-70
2023/06/19 09:09:21;;;;;;;21.40;10.25;;;;;;;22.94;93.52;101144.84;5101422;28;20024;-68
2023/06/19 09:12:06;;;;;;;20.30;10.18;;;;;;;23.18;90.45;101142.91;5082745;28;20035;-69
2023/06/19 09:14:35;;;;;;;22.77;10.25;;;;;;;22.92;87.94;101153.00;5104557;28;20420;-67
2023/06/19 09:17:10;;;;;;;20.48;9.82;;;;;;;22.89;86.60;101147.75;5107118;28;20027;-67
2023/06/19 09:19:35;;;;;;;19.60;9.25;;;;;;;23.01;84.54;101145.44;5106982;28;20563;-69
2023/06/19 09:22:08;;;;;;;20.38;9.75;;;;;;;22.91;85.72;101162.00;5106914;28;20028;-67
2023/06/19 09:24:36;;;;;;;19.88;9.00;;;;;;;23.17;87.00;101159.16;5106616;28;20363;-66
2023/06/19 09:27:20;;;;;;;20.00;9.38;;;;;;;23.19;83.27;101170.78;5106895;28;20028;-65
2023/06/19 09:29:50;;;;;;;21.42;9.75;;;;;;;23.39;79.53;101160.00;5108306;28;20114;-69
2023/06/19 09:32:23;;;;;;;20.45;9.57;;;;;;;23.55;78.36;101157.47;5100542;28;20073;-69
2023/06/19 09:34:50;;;;;;;;;;;;;;;23.65;75.38;101164.22;5101189;28;20457;-68
2023/06/19 09:37:27;;;;;;;20.95;9.00;;;;;;;23.43;77.72;101167.00;5108102;28;19926;-65
2023/06/19 09:39:57;;;;;;;20.02;8.82;;;;;;;23.79;76.46;101170.78;5101410;28;20024;-69
2023/06/19 09:42:33;;;;;;;20.75;8.80;;;;;;;23.63;73.58;101166.09;5107775;28;20028;-69
2023/06/19 09:45:04;;;;;;;19.88;8.65;;;;;;;23.69;71.99;101173.03;5104713;28;20028;-69
2023/06/19 09:47:43;;;;;;;21.33;9.30;;;;;;;23.76;73.42;101174.50;5105268;28;20058;-69
2023/06/19 09:50:12;;;;;;;20.80;9.68;;;;;;;23.93;69.33;101176.47;5104830;28;20042;-68
2023/06/19 09:52:39;;;;;;;21.40;9.88;;;;;;;24.67;70.52;101177.50;5106399;28;20036;-68
2023/06/19 09:55:06;;;;;;;20.10;9.95;;;;;;;24.35;65.51;101175.38;5105539;28;20023;-69
2023/06/19 09:57:38;;;;;;;21.30;9.40;;;;;;;24.40;64.95;101177.84;5105189;28;20028;-69
2023/06/19 10:00:12;;;;;;;20.50;9.57;;;;;;;24.24;67.38;101180.41;5106031;28;20103;-69
2023/06/19 10:02:43;;;;;;;20.77;9.50;;;;;;;24.45;65.77;101181.22;5106584;28;20036;-69
2023/06/19 10:05:11;;;;;;;20.77;9.43;;;;;;;24.65;63.61;101174.84;5103212;28;20035;-67
2023/06/19 10:07:38;;;;;;;21.58;8.95;;;;;;;24.89;64.88;101177.31;5104090;28;20028;-68
2023/06/19 10:10:06;;;;;;;20.75;9.32;;;;;;;25.87;60.46;101178.53;5089308;28;20434;-69
2023/06/19 10:12:40;;;;;;;21.35;9.50;;;;;;;26.16;57.97;101176.94;5099475;28;20054;-67
2023/06/19 10:15:18;;;;;;;20.17;9.77;;;;;;;26.38;56.62;101184.72;5100094;28;20559;-61
2023/06/19 10:17:49;;;;;;;20.63;8.35;;;;;;;27.39;52.28;101193.38;5105304;28;20530;-63
2023/06/19 10:20:32;;;;;;;20.15;9.02;;;;;;;27.11;51.87;101186.84;5105094;28;20406;-69
2023/06/19 10:22:58;;;;;;;19.75;8.23;;;;;;;26.65;53.14;101186.84;5104181;28;20384;-68
2023/06/19 10:25:27;;;;;;;20.58;8.75;;;;;;;26.20;54.41;101192.06;5106265;28;20020;-66
2023/06/19 10:27:52;;;;;;;19.80;8.40;;;;;;;26.20;54.54;101181.22;5104544;28;20028;-70
2023/06/19 10:30:19;;;;;;;19.95;8.93;;;;;;;26.81;51.85;101183.25;5105461;28;20081;-70
2023/06/19 10:32:46;;;;;;;20.38;9.10;;;;;;;27.87;49.88;101182.22;5105561;28;20031;-70
2023/06/19 10:35:13;;;;;;;18.58;8.10;;;;;;;29.74;46.08;101187.03;5104274;28;20028;-70
2023/06/19 10:37:38;;;;;;;19.15;7.82;;;;;;;28.94;46.33;101189.84;5106540;28;20040;-70
2023/06/19 10:40:09;;;;;;;19.90;7.93;;;;;;;27.76;46.05;101179.34;5103437;28;20069;-70
2023/06/19 10:42:36;;;;;;;19.13;7.70;;;;;;;27.89;46.51;101193.91;5099820;28;20043;-70
2023/06/19 10:45:06;;;;;;;19.00;8.20;;;;;;;28.43;46.87;101187.75;5099338;28;20486;-70
2023/06/19 10:47:32;;;;;;;19.25;8.88;;;;;;;28.57;45.40;101185.94;5099271;28;20039;-70
2023/06/19 10:49:58;;;;;;;19.60;7.90;;;;;;;28.10;46.92;101183.50;5106231;28;20120;-70
2023/06/19 10:52:23;;;;;;;18.90;7.55;;;;;;;27.03;46.28;101199.09;5104014;28;20412;-66
2023/06/19 10:54:56;;;;;;;18.52;7.55;;;;;;;26.60;48.13;101188.91;5105210;28;20028;-70
2023/06/19 10:57:29;;;;;;;18.33;7.60;;;;;;;26.79;48.24;101181.50;5103923;28;20073;-69
2023/06/19 10:59:55;;;;;;;18.58;7.32;;;;;;;27.07;46.66;101176.25;5105518;28;20073;-69
2023/06/19 11:02:21;;;;;;;18.98;7.07;;;;;;;27.11;47.03;101178.69;5104242;28;20445;-68
2023/06/19 11:04:47;;;;;;;20.48;7.35;;;;;;;26.87;46.32;101178.34;5086040;28;20467;-63
2023/06/19 11:07:12;;;;;;;19.38;7.20;;;;;;;27.25;46.15;101174.31;5105337;28;20035;-65
2023/06/19 11:09:37;;;;;;;20.23;7.72;;;;;;;28.15;44.21;101165.09;5085135;28;20028;-65